sensor_id;sensor_type;location;lat;lon;timestamp;P1;durP1;ratioP1;P2;durP2;ratioP2
37407;SDS011;24866;50.248;8.252;2022-07-23T00:01:47;11.27;;;7.38;;
37407;SDS011;24866;50.248;8.252;2022-07-23T00:04:17;9.38;;;7.30;;
37407;SDS011;24866;50.248;8.252;2022-07-23T00:06:47;10.05;;;7.22;;
37407;SDS011;24866;50.248;8.252;2022-07-23T00:09:17;9.10;;;8.10;;
37407;SDS011;24866;50.248;8.252;2022-07-23T00:11:47;11.38;;;7.63;;
37407;SDS011;24866;50.248;8.252;2022-07-23T00:14:17;10.38;;;8.18;;
37407;SDS011;24866;50.248;8.252;2022-07-23T00:16:48;9.65;;;7.00;;
37407;SDS011;24866;50.248;8.252;2022-07-23T00:19:18;10.38;;;7.82;;
37407;SDS011;24866;50.248;8.252;2022-07-23T00:21:48;10.52;;;7.75;;
37407;SDS011;24866;50.248;8.252;2022-07-23T00:24:18;12.73;;;8.45;;
37407;SDS011;24866;50.248;8.252;2022-07-23T00:26:48;12.82;;;8.23;;
37407;SDS011;24866;50.248;8.252;2022-07-23T00:29:18;11.10;;;8.13;;
37407;SDS011;24866;50.248;8.252;2022-07-23T00:31:49;9.73;;;7.45;;
37407;SDS011;24866;50.248;8.252;2022-07-23T00:34:19;8.80;;;7.90;;
37407;SDS011;24866;50.248;8.252;2022-07-23T00:36:49;10.75;;;8.18;;
37407;SDS011;24866;50.248;8.252;2022-07-23T00:39:21;11.55;;;8.30;;
37407;SDS011;24866;50.248;8.252;2022-07-23T00:41:51;11.73;;;8.55;;
37407;SDS011;24866;50.248;8.252;2022-07-23T00:44:22;9.50;;;7.47;;
37407;SDS011;24866;50.248;8.252;2022-07-23T00:46:54;10.60;;;8.52;;
37407;SDS011;24866;50.248;8.252;2022-07-23T00:49:27;9.80;;;7.50;;
37407;SDS011;24866;50.248;8.252;2022-07-23T00:52:00;18.75;;;9.23;;
37407;SDS011;24866;50.248;8.252;2022-07-23T00:54:31;11.05;;;9.27;;
37407;SDS011;24866;50.248;8.252;2022-07-23T00:57:00;11.35;;;8.27;;
37407;SDS011;24866;50.248;8.252;2022-07-23T00:59:30;11.93;;;8.75;;
37407;SDS011;24866;50.248;8.252;2022-07-23T01:02:02;10.27;;;8.73;;
37407;SDS011;24866;50.248;8.252;2022-07-23T01:04:32;9.93;;;8.60;;
37407;SDS011;24866;50.248;8.252;2022-07-23T01:07:02;12.52;;;9.07;;
37407;SDS011;24866;50.248;8.252;2022-07-23T01:09:32;11.27;;;8.57;;
37407;SDS011;24866;50.248;8.252;2022-07-23T01:12:02;11.02;;;8.13;;
37407;SDS011;24866;50.248;8.252;2022-07-23T01:14:33;10.27;;;7.82;;
37407;SDS011;24866;50.248;8.252;2022-07-23T01:17:04;10.90;;;8.35;;
37407;SDS011;24866;50.248;8.252;2022-07-23T01:19:34;9.93;;;8.70;;
37407;SDS011;24866;50.248;8.252;2022-07-23T01:22:04;10.68;;;8.25;;
37407;SDS011;24866;50.248;8.252;2022-07-23T01:24:36;9.52;;;8.15;;
37407;SDS011;24866;50.248;8.252;2022-07-23T01:27:06;9.82;;;8.02;;
37407;SDS011;24866;50.248;8.252;2022-07-23T01:29:36;12.05;;;8.25;;
37407;SDS011;24866;50.248;8.252;2022-07-23T01:32:06;12.18;;;9.20;;
37407;SDS011;24866;50.248;8.252;2022-07-23T01:34:36;10.07;;;8.10;;
37407;SDS011;24866;50.248;8.252;2022-07-23T01:37:06;14.32;;;8.68;;
37407;SDS011;24866;50.248;8.252;2022-07-23T01:39:37;15.48;;;10.32;;
37407;SDS011;24866;50.248;8.252;2022-07-23T01:42:07;12.27;;;9.13;;
37407;SDS011;24866;50.248;8.252;2022-07-23T01:44:37;10.65;;;8.68;;
37407;SDS011;24866;50.248;8.252;2022-07-23T01:47:07;13.82;;;9.90;;
37407;SDS011;24866;50.248;8.252;2022-07-23T01:49:37;13.35;;;9.90;;
37407;SDS011;24866;50.248;8.252;2022-07-23T01:52:07;13.77;;;10.52;;
37407;SDS011;24866;50.248;8.252;2022-07-23T01:54:40;14.32;;;10.00;;
37407;SDS011;24866;50.248;8.252;2022-07-23T01:57:10;12.20;;;9.55;;
37407;SDS011;24866;50.248;8.252;2022-07-23T01:59:40;16.13;;;10.73;;
37407;SDS011;24866;50.248;8.252;2022-07-23T02:02:10;14.10;;;10.88;;
37407;SDS011;24866;50.248;8.252;2022-07-23T02:04:40;17.05;;;11.30;;
37407;SDS011;24866;50.248;8.252;2022-07-23T02:07:10;13.60;;;10.77;;
37407;SDS011;24866;50.248;8.252;2022-07-23T02:09:41;13.02;;;9.75;;
37407;SDS011;24866;50.248;8.252;2022-07-23T02:12:11;11.00;;;8.88;;
37407;SDS011;24866;50.248;8.252;2022-07-23T02:14:41;9.90;;;7.28;;
37407;SDS011;24866;50.248;8.252;2022-07-23T02:17:11;11.10;;;8.75;;
37407;SDS011;24866;50.248;8.252;2022-07-23T02:19:41;11.93;;;8.50;;
37407;SDS011;24866;50.248;8.252;2022-07-23T02:22:11;11.23;;;8.98;;
37407;SDS011;24866;50.248;8.252;2022-07-23T02:24:42;13.57;;;11.20;;
37407;SDS011;24866;50.248;8.252;2022-07-23T02:27:12;13.98;;;10.32;;
37407;SDS011;24866;50.248;8.252;2022-07-23T02:29:42;15.65;;;10.98;;
37407;SDS011;24866;50.248;8.252;2022-07-23T02:32:12;10.43;;;7.80;;
37407;SDS011;24866;50.248;8.252;2022-07-23T02:34:42;15.52;;;10.40;;
37407;SDS011;24866;50.248;8.252;2022-07-23T02:37:12;12.85;;;11.18;;
37407;SDS011;24866;50.248;8.252;2022-07-23T02:39:43;13.20;;;10.60;;
37407;SDS011;24866;50.248;8.252;2022-07-23T02:42:13;12.48;;;9.68;;
37407;SDS011;24866;50.248;8.252;2022-07-23T02:44:43;9.57;;;8.15;;
37407;SDS011;24866;50.248;8.252;2022-07-23T02:47:13;12.75;;;9.50;;
37407;SDS011;24866;50.248;8.252;2022-07-23T02:49:43;9.82;;;8.65;;
37407;SDS011;24866;50.248;8.252;2022-07-23T02:52:13;11.63;;;7.97;;
37407;SDS011;24866;50.248;8.252;2022-07-23T02:54:44;8.48;;;6.90;;
37407;SDS011;24866;50.248;8.252;2022-07-23T02:57:14;9.80;;;7.80;;
37407;SDS011;24866;50.248;8.252;2022-07-23T02:59:44;10.05;;;7.70;;
37407;SDS011;24866;50.248;8.252;2022-07-23T03:02:14;10.82;;;8.50;;
37407;SDS011;24866;50.248;8.252;2022-07-23T03:04:44;12.32;;;8.30;;
37407;SDS011;24866;50.248;8.252;2022-07-23T03:07:14;8.82;;;7.90;;
37407;SDS011;24866;50.248;8.252;2022-07-23T03:09:45;11.43;;;8.10;;
37407;SDS011;24866;50.248;8.252;2022-07-23T03:12:16;10.82;;;8.00;;
37407;SDS011;24866;50.248;8.252;2022-07-23T03:14:45;9.98;;;8.15;;
37407;SDS011;24866;50.248;8.252;2022-07-23T03:17:15;11.48;;;8.75;;
37407;SDS011;24866;50.248;8.252;2022-07-23T03:19:45;12.85;;;8.02;;
37407;SDS011;24866;50.248;8.252;2022-07-23T03:22:15;10.30;;;7.90;;
37407;SDS011;24866;50.248;8.252;2022-07-23T03:24:47;9.80;;;7.35;;
37407;SDS011;24866;50.248;8.252;2022-07-23T03:27:23;11.38;;;9.45;;
37407;SDS011;24866;50.248;8.252;2022-07-23T03:29:55;10.13;;;8.30;;
37407;SDS011;24866;50.248;8.252;2022-07-23T03:32:26;10.30;;;7.95;;
37407;SDS011;24866;50.248;8.252;2022-07-23T03:34:56;9.25;;;7.78;;
37407;SDS011;24866;50.248;8.252;2022-07-23T03:37:27;14.88;;;11.18;;
37407;SDS011;24866;50.248;8.252;2022-07-23T03:39:58;11.57;;;9.00;;
37407;SDS011;24866;50.248;8.252;2022-07-23T03:42:28;13.27;;;10.45;;
37407;SDS011;24866;50.248;8.252;2022-07-23T03:44:58;13.30;;;10.10;;
37407;SDS011;24866;50.248;8.252;2022-07-23T03:47:28;13.93;;;10.43;;
37407;SDS011;24866;50.248;8.252;2022-07-23T03:49:59;15.52;;;11.55;;
37407;SDS011;24866;50.248;8.252;2022-07-23T03:52:29;12.63;;;9.52;;
37407;SDS011;24866;50.248;8.252;2022-07-23T03:55:00;12.60;;;10.75;;
37407;SDS011;24866;50.248;8.252;2022-07-23T03:57:30;13.73;;;11.18;;
37407;SDS011;24866;50.248;8.252;2022-07-23T04:00:00;13.38;;;11.32;;
37407;SDS011;24866;50.248;8.252;2022-07-23T04:02:30;12.93;;;11.02;;
37407;SDS011;24866;50.248;8.252;2022-07-23T04:05:00;13.35;;;11.15;;
37407;SDS011;24866;50.248;8.252;2022-07-23T04:07:30;14.85;;;10.98;;
37407;SDS011;24866;50.248;8.252;2022-07-23T04:10:01;14.02;;;11.40;;
37407;SDS011;24866;50.248;8.252;2022-07-23T04:12:32;16.33;;;13.73;;
37407;SDS011;24866;50.248;8.252;2022-07-23T04:15:02;14.13;;;10.85;;
37407;SDS011;24866;50.248;8.252;2022-07-23T04:17:32;18.40;;;15.57;;
37407;SDS011;24866;50.248;8.252;2022-07-23T04:20:02;13.30;;;11.15;;
37407;SDS011;24866;50.248;8.252;2022-07-23T04:22:33;15.65;;;12.95;;
37407;SDS011;24866;50.248;8.252;2022-07-23T04:25:05;14.15;;;11.68;;
37407;SDS011;24866;50.248;8.252;2022-07-23T04:27:35;13.38;;;11.10;;
37407;SDS011;24866;50.248;8.252;2022-07-23T04:30:06;18.30;;;13.07;;
37407;SDS011;24866;50.248;8.252;2022-07-23T04:32:37;13.68;;;11.75;;
37407;SDS011;24866;50.248;8.252;2022-07-23T04:35:07;13.73;;;11.50;;
37407;SDS011;24866;50.248;8.252;2022-07-23T04:37:37;14.60;;;11.43;;
37407;SDS011;24866;50.248;8.252;2022-07-23T04:40:09;18.92;;;13.48;;
37407;SDS011;24866;50.248;8.252;2022-07-23T04:42:40;17.33;;;14.02;;
37407;SDS011;24866;50.248;8.252;2022-07-23T04:45:10;19.40;;;12.48;;
37407;SDS011;24866;50.248;8.252;2022-07-23T04:47:40;14.52;;;10.80;;
37407;SDS011;24866;50.248;8.252;2022-07-23T04:50:10;15.98;;;13.85;;
37407;SDS011;24866;50.248;8.252;2022-07-23T04:52:40;15.98;;;11.68;;
37407;SDS011;24866;50.248;8.252;2022-07-23T04:55:11;16.60;;;12.90;;
37407;SDS011;24866;50.248;8.252;2022-07-23T04:57:41;12.60;;;11.13;;
37407;SDS011;24866;50.248;8.252;2022-07-23T05:00:12;15.88;;;12.60;;
37407;SDS011;24866;50.248;8.252;2022-07-23T05:02:42;16.80;;;12.07;;
37407;SDS011;24866;50.248;8.252;2022-07-23T05:05:12;17.45;;;12.65;;
37407;SDS011;24866;50.248;8.252;2022-07-23T05:07:42;18.30;;;13.68;;
37407;SDS011;24866;50.248;8.252;2022-07-23T05:10:13;17.25;;;12.07;;
37407;SDS011;24866;50.248;8.252;2022-07-23T05:12:43;15.27;;;13.30;;
37407;SDS011;24866;50.248;8.252;2022-07-23T05:15:13;20.02;;;14.10;;
37407;SDS011;24866;50.248;8.252;2022-07-23T05:17:43;15.32;;;12.90;;
37407;SDS011;24866;50.248;8.252;2022-07-23T05:20:13;16.05;;;11.35;;
37407;SDS011;24866;50.248;8.252;2022-07-23T05:22:43;15.32;;;13.20;;
37407;SDS011;24866;50.248;8.252;2022-07-23T05:25:14;18.05;;;14.05;;
37407;SDS011;24866;50.248;8.252;2022-07-23T05:27:44;15.38;;;11.05;;
37407;SDS011;24866;50.248;8.252;2022-07-23T05:30:14;17.50;;;12.60;;
37407;SDS011;24866;50.248;8.252;2022-07-23T05:32:44;19.55;;;9.20;;
37407;SDS011;24866;50.248;8.252;2022-07-23T05:35:14;13.80;;;11.27;;
37407;SDS011;24866;50.248;8.252;2022-07-23T05:37:44;12.73;;;10.00;;
37407;SDS011;24866;50.248;8.252;2022-07-23T05:40:15;14.27;;;11.73;;
37407;SDS011;24866;50.248;8.252;2022-07-23T05:42:45;13.63;;;7.68;;
37407;SDS011;24866;50.248;8.252;2022-07-23T05:45:15;11.80;;;8.60;;
37407;SDS011;24866;50.248;8.252;2022-07-23T05:47:46;10.32;;;7.35;;
37407;SDS011;24866;50.248;8.252;2022-07-23T05:50:16;13.05;;;11.27;;
37407;SDS011;24866;50.248;8.252;2022-07-23T05:52:47;10.65;;;9.10;;
37407;SDS011;24866;50.248;8.252;2022-07-23T05:55:18;10.50;;;8.75;;
37407;SDS011;24866;50.248;8.252;2022-07-23T05:57:48;12.52;;;8.00;;
37407;SDS011;24866;50.248;8.252;2022-07-23T06:00:18;11.20;;;7.90;;
37407;SDS011;24866;50.248;8.252;2022-07-23T06:02:48;13.43;;;9.32;;
37407;SDS011;24866;50.248;8.252;2022-07-23T06:05:18;12.50;;;7.88;;
37407;SDS011;24866;50.248;8.252;2022-07-23T06:07:48;10.68;;;8.60;;
37407;SDS011;24866;50.248;8.252;2022-07-23T06:10:20;10.18;;;8.50;;
37407;SDS011;24866;50.248;8.252;2022-07-23T06:12:50;13.73;;;10.35;;
37407;SDS011;24866;50.248;8.252;2022-07-23T06:15:20;10.35;;;8.05;;
37407;SDS011;24866;50.248;8.252;2022-07-23T06:17:50;9.93;;;8.13;;
37407;SDS011;24866;50.248;8.252;2022-07-23T06:20:20;10.15;;;8.50;;
37407;SDS011;24866;50.248;8.252;2022-07-23T06:22:50;11.43;;;8.45;;
37407;SDS011;24866;50.248;8.252;2022-07-23T06:25:21;9.30;;;8.23;;
37407;SDS011;24866;50.248;8.252;2022-07-23T06:27:51;9.98;;;8.27;;
37407;SDS011;24866;50.248;8.252;2022-07-23T06:30:21;11.77;;;8.73;;
37407;SDS011;24866;50.248;8.252;2022-07-23T06:32:51;11.73;;;8.15;;
37407;SDS011;24866;50.248;8.252;2022-07-23T06:35:21;10.65;;;6.22;;
37407;SDS011;24866;50.248;8.252;2022-07-23T06:37:51;11.65;;;7.50;;
37407;SDS011;24866;50.248;8.252;2022-07-23T06:40:22;8.60;;;7.70;;
37407;SDS011;24866;50.248;8.252;2022-07-23T06:42:52;8.95;;;7.22;;
37407;SDS011;24866;50.248;8.252;2022-07-23T06:45:22;6.85;;;5.53;;
37407;SDS011;24866;50.248;8.252;2022-07-23T06:47:52;7.63;;;5.10;;
37407;SDS011;24866;50.248;8.252;2022-07-23T06:50:22;6.38;;;5.03;;
37407;SDS011;24866;50.248;8.252;2022-07-23T06:52:52;7.97;;;6.05;;
37407;SDS011;24866;50.248;8.252;2022-07-23T06:55:27;8.80;;;6.57;;
37407;SDS011;24866;50.248;8.252;2022-07-23T06:57:57;9.00;;;7.35;;
37407;SDS011;24866;50.248;8.252;2022-07-23T07:00:27;9.93;;;7.38;;
37407;SDS011;24866;50.248;8.252;2022-07-23T07:03:00;9.10;;;7.20;;
37407;SDS011;24866;50.248;8.252;2022-07-23T07:05:30;8.98;;;6.45;;
37407;SDS011;24866;50.248;8.252;2022-07-23T07:08:00;7.78;;;6.47;;
37407;SDS011;24866;50.248;8.252;2022-07-23T07:10:31;10.43;;;7.05;;
37407;SDS011;24866;50.248;8.252;2022-07-23T07:13:01;7.80;;;5.90;;
37407;SDS011;24866;50.248;8.252;2022-07-23T07:15:31;8.38;;;7.30;;
37407;SDS011;24866;50.248;8.252;2022-07-23T07:18:01;11.13;;;7.18;;
37407;SDS011;24866;50.248;8.252;2022-07-23T07:20:31;11.68;;;6.90;;
37407;SDS011;24866;50.248;8.252;2022-07-23T07:23:01;9.50;;;6.88;;
37407;SDS011;24866;50.248;8.252;2022-07-23T07:25:33;10.75;;;8.00;;
37407;SDS011;24866;50.248;8.252;2022-07-23T07:28:03;12.60;;;8.20;;
37407;SDS011;24866;50.248;8.252;2022-07-23T07:30:33;10.45;;;7.30;;
37407;SDS011;24866;50.248;8.252;2022-07-23T07:33:04;11.40;;;8.70;;
37407;SDS011;24866;50.248;8.252;2022-07-23T07:35:34;9.88;;;7.35;;
37407;SDS011;24866;50.248;8.252;2022-07-23T07:38:04;10.75;;;8.90;;
37407;SDS011;24866;50.248;8.252;2022-07-23T07:40:35;10.80;;;7.53;;
37407;SDS011;24866;50.248;8.252;2022-07-23T07:43:05;10.50;;;8.00;;
37407;SDS011;24866;50.248;8.252;2022-07-23T07:45:35;10.55;;;7.68;;
37407;SDS011;24866;50.248;8.252;2022-07-23T07:48:05;14.73;;;10.52;;
37407;SDS011;24866;50.248;8.252;2022-07-23T07:50:35;11.45;;;7.68;;
37407;SDS011;24866;50.248;8.252;2022-07-23T07:53:05;11.55;;;8.93;;
37407;SDS011;24866;50.248;8.252;2022-07-23T07:55:36;12.23;;;8.43;;
37407;SDS011;24866;50.248;8.252;2022-07-23T07:58:06;12.45;;;8.00;;
37407;SDS011;24866;50.248;8.252;2022-07-23T08:00:37;11.38;;;8.00;;
37407;SDS011;24866;50.248;8.252;2022-07-23T08:03:06;12.18;;;8.63;;
37407;SDS011;24866;50.248;8.252;2022-07-23T08:05:36;13.32;;;8.07;;
37407;SDS011;24866;50.248;8.252;2022-07-23T08:08:07;12.50;;;9.52;;
37407;SDS011;24866;50.248;8.252;2022-07-23T08:10:39;13.55;;;8.77;;
37407;SDS011;24866;50.248;8.252;2022-07-23T08:13:11;12.07;;;7.88;;
37407;SDS011;24866;50.248;8.252;2022-07-23T08:15:43;12.77;;;8.73;;
37407;SDS011;24866;50.248;8.252;2022-07-23T08:18:13;9.82;;;7.38;;
37407;SDS011;24866;50.248;8.252;2022-07-23T08:20:43;10.98;;;8.30;;
37407;SDS011;24866;50.248;8.252;2022-07-23T08:23:13;9.20;;;7.07;;
37407;SDS011;24866;50.248;8.252;2022-07-23T08:25:48;9.75;;;8.07;;
37407;SDS011;24866;50.248;8.252;2022-07-23T08:28:18;9.95;;;8.50;;
37407;SDS011;24866;50.248;8.252;2022-07-23T08:30:48;11.48;;;6.90;;
37407;SDS011;24866;50.248;8.252;2022-07-23T08:33:18;10.10;;;7.47;;
37407;SDS011;24866;50.248;8.252;2022-07-23T08:35:49;9.70;;;6.40;;
37407;SDS011;24866;50.248;8.252;2022-07-23T08:38:21;11.15;;;6.95;;
37407;SDS011;24866;50.248;8.252;2022-07-23T08:40:54;8.80;;;6.38;;
37407;SDS011;24866;50.248;8.252;2022-07-23T08:43:26;8.95;;;6.43;;
37407;SDS011;24866;50.248;8.252;2022-07-23T08:45:57;9.23;;;6.68;;
37407;SDS011;24866;50.248;8.252;2022-07-23T08:48:31;8.20;;;6.25;;
37407;SDS011;24866;50.248;8.252;2022-07-23T08:51:03;9.00;;;6.03;;
37407;SDS011;24866;50.248;8.252;2022-07-23T08:53:34;8.57;;;7.00;;
37407;SDS011;24866;50.248;8.252;2022-07-23T08:56:07;6.65;;;4.60;;
37407;SDS011;24866;50.248;8.252;2022-07-23T08:58:37;7.22;;;5.32;;
37407;SDS011;24866;50.248;8.252;2022-07-23T09:01:07;8.30;;;5.18;;
37407;SDS011;24866;50.248;8.252;2022-07-23T09:03:37;6.72;;;4.50;;
37407;SDS011;24866;50.248;8.252;2022-07-23T09:06:07;6.80;;;5.90;;
37407;SDS011;24866;50.248;8.252;2022-07-23T09:08:38;7.68;;;4.28;;
37407;SDS011;24866;50.248;8.252;2022-07-23T09:11:10;8.70;;;5.38;;
37407;SDS011;24866;50.248;8.252;2022-07-23T09:13:45;8.60;;;5.38;;
37407;SDS011;24866;50.248;8.252;2022-07-23T09:16:17;6.90;;;4.32;;
37407;SDS011;24866;50.248;8.252;2022-07-23T09:18:50;5.05;;;3.78;;
37407;SDS011;24866;50.248;8.252;2022-07-23T09:23:54;6.15;;;3.95;;
37407;SDS011;24866;50.248;8.252;2022-07-23T09:26:32;5.15;;;4.13;;
37407;SDS011;24866;50.248;8.252;2022-07-23T09:29:10;5.32;;;3.80;;
37407;SDS011;24866;50.248;8.252;2022-07-23T09:31:42;6.18;;;4.20;;
37407;SDS011;24866;50.248;8.252;2022-07-23T09:34:16;6.55;;;4.45;;
37407;SDS011;24866;50.248;8.252;2022-07-23T09:36:48;7.85;;;4.72;;
37407;SDS011;24866;50.248;8.252;2022-07-23T09:39:27;7.85;;;4.75;;
37407;SDS011;24866;50.248;8.252;2022-07-23T09:42:12;7.40;;;4.53;;
37407;SDS011;24866;50.248;8.252;2022-07-23T09:44:43;5.53;;;4.53;;
37407;SDS011;24866;50.248;8.252;2022-07-23T09:47:15;7.13;;;4.80;;
37407;SDS011;24866;50.248;8.252;2022-07-23T09:49:57;5.82;;;4.28;;
37407;SDS011;24866;50.248;8.252;2022-07-23T09:52:29;5.82;;;4.15;;
37407;SDS011;24866;50.248;8.252;2022-07-23T09:55:00;6.90;;;5.53;;
37407;SDS011;24866;50.248;8.252;2022-07-23T09:57:33;8.17;;;6.23;;
37407;SDS011;24866;50.248;8.252;2022-07-23T10:00:04;5.88;;;4.47;;
37407;SDS011;24866;50.248;8.252;2022-07-23T10:02:36;5.60;;;4.55;;
37407;SDS011;24866;50.248;8.252;2022-07-23T10:05:08;8.13;;;5.20;;
37407;SDS011;24866;50.248;8.252;2022-07-23T10:07:39;6.20;;;5.30;;
37407;SDS011;24866;50.248;8.252;2022-07-23T10:10:10;5.72;;;4.63;;
37407;SDS011;24866;50.248;8.252;2022-07-23T10:12:44;7.50;;;5.00;;
37407;SDS011;24866;50.248;8.252;2022-07-23T10:15:40;6.50;;;4.57;;
37407;SDS011;24866;50.248;8.252;2022-07-23T10:18:10;6.40;;;4.28;;
37407;SDS011;24866;50.248;8.252;2022-07-23T10:20:41;5.90;;;4.28;;
37407;SDS011;24866;50.248;8.252;2022-07-23T10:23:14;7.15;;;5.35;;
37407;SDS011;24866;50.248;8.252;2022-07-23T10:25:49;6.05;;;4.38;;
37407;SDS011;24866;50.248;8.252;2022-07-23T10:28:49;7.05;;;4.80;;
37407;SDS011;24866;50.248;8.252;2022-07-23T10:31:37;6.53;;;5.22;;
37407;SDS011;24866;50.248;8.252;2022-07-23T10:34:18;8.57;;;5.25;;
37407;SDS011;24866;50.248;8.252;2022-07-23T10:36:56;6.53;;;4.93;;
37407;SDS011;24866;50.248;8.252;2022-07-23T10:39:31;6.43;;;5.13;;
37407;SDS011;24866;50.248;8.252;2022-07-23T10:42:08;7.97;;;4.95;;
37407;SDS011;24866;50.248;8.252;2022-07-23T10:44:41;6.70;;;5.68;;
37407;SDS011;24866;50.248;8.252;2022-07-23T10:47:21;6.88;;;5.32;;
37407;SDS011;24866;50.248;8.252;2022-07-23T10:50:18;9.07;;;6.00;;
37407;SDS011;24866;50.248;8.252;2022-07-23T10:53:09;6.82;;;4.93;;
37407;SDS011;24866;50.248;8.252;2022-07-23T10:55:47;6.10;;;5.10;;
37407;SDS011;24866;50.248;8.252;2022-07-23T10:58:20;6.78;;;4.63;;
37407;SDS011;24866;50.248;8.252;2022-07-23T11:00:53;8.02;;;6.30;;
37407;SDS011;24866;50.248;8.252;2022-07-23T11:03:30;7.45;;;6.00;;
37407;SDS011;24866;50.248;8.252;2022-07-23T11:06:04;6.72;;;5.63;;
37407;SDS011;24866;50.248;8.252;2022-07-23T11:08:34;6.55;;;4.97;;
37407;SDS011;24866;50.248;8.252;2022-07-23T11:11:08;6.88;;;5.68;;
37407;SDS011;24866;50.248;8.252;2022-07-23T11:13:40;7.88;;;5.68;;
37407;SDS011;24866;50.248;8.252;2022-07-23T11:16:16;8.48;;;6.13;;
37407;SDS011;24866;50.248;8.252;2022-07-23T11:19:03;10.65;;;6.03;;
37407;SDS011;24866;50.248;8.252;2022-07-23T11:21:41;11.23;;;6.55;;
37407;SDS011;24866;50.248;8.252;2022-07-23T11:24:24;7.47;;;6.07;;
37407;SDS011;24866;50.248;8.252;2022-07-23T11:26:59;7.05;;;5.80;;
37407;SDS011;24866;50.248;8.252;2022-07-23T11:29:48;9.40;;;5.45;;
37407;SDS011;24866;50.248;8.252;2022-07-23T11:35:19;8.98;;;5.60;;
37407;SDS011;24866;50.248;8.252;2022-07-23T11:37:51;7.20;;;6.35;;
37407;SDS011;24866;50.248;8.252;2022-07-23T11:40:26;9.85;;;6.70;;
37407;SDS011;24866;50.248;8.252;2022-07-23T11:42:58;9.68;;;6.43;;
37407;SDS011;24866;50.248;8.252;2022-07-23T11:45:30;10.25;;;6.93;;
37407;SDS011;24866;50.248;8.252;2022-07-23T11:48:03;6.68;;;5.82;;
37407;SDS011;24866;50.248;8.252;2022-07-23T11:50:35;9.05;;;6.85;;
37407;SDS011;24866;50.248;8.252;2022-07-23T11:53:05;14.55;;;6.95;;
37407;SDS011;24866;50.248;8.252;2022-07-23T11:55:35;7.53;;;6.72;;
37407;SDS011;24866;50.248;8.252;2022-07-23T11:58:05;8.85;;;6.30;;
37407;SDS011;24866;50.248;8.252;2022-07-23T12:00:39;7.75;;;6.35;;
37407;SDS011;24866;50.248;8.252;2022-07-23T12:03:11;8.40;;;6.13;;
37407;SDS011;24866;50.248;8.252;2022-07-23T12:05:42;7.90;;;5.97;;
37407;SDS011;24866;50.248;8.252;2022-07-23T12:08:12;9.13;;;6.60;;
37407;SDS011;24866;50.248;8.252;2022-07-23T12:10:43;7.93;;;6.40;;
37407;SDS011;24866;50.248;8.252;2022-07-23T12:13:14;10.45;;;6.53;;
37407;SDS011;24866;50.248;8.252;2022-07-23T12:15:47;6.82;;;5.70;;
37407;SDS011;24866;50.248;8.252;2022-07-23T12:20:51;8.63;;;5.57;;
37407;SDS011;24866;50.248;8.252;2022-07-23T12:23:24;7.57;;;6.32;;
37407;SDS011;24866;50.248;8.252;2022-07-23T12:25:55;9.93;;;5.57;;
37407;SDS011;24866;50.248;8.252;2022-07-23T12:28:32;11.05;;;6.13;;
37407;SDS011;24866;50.248;8.252;2022-07-23T12:31:05;10.40;;;6.03;;
37407;SDS011;24866;50.248;8.252;2022-07-23T12:33:37;7.93;;;6.20;;
37407;SDS011;24866;50.248;8.252;2022-07-23T12:36:08;9.40;;;6.28;;
37407;SDS011;24866;50.248;8.252;2022-07-23T12:38:40;7.20;;;6.47;;
37407;SDS011;24866;50.248;8.252;2022-07-23T12:41:11;7.57;;;5.65;;
37407;SDS011;24866;50.248;8.252;2022-07-23T12:43:42;8.55;;;5.53;;
37407;SDS011;24866;50.248;8.252;2022-07-23T12:46:14;8.80;;;5.17;;
37407;SDS011;24866;50.248;8.252;2022-07-23T12:48:51;7.43;;;4.85;;
37407;SDS011;24866;50.248;8.252;2022-07-23T12:51:23;8.35;;;6.28;;
37407;SDS011;24866;50.248;8.252;2022-07-23T12:53:55;7.70;;;5.78;;
37407;SDS011;24866;50.248;8.252;2022-07-23T12:56:27;10.93;;;5.72;;
37407;SDS011;24866;50.248;8.252;2022-07-23T12:58:59;9.45;;;6.07;;
37407;SDS011;24866;50.248;8.252;2022-07-23T13:01:38;14.27;;;6.05;;
37407;SDS011;24866;50.248;8.252;2022-07-23T13:04:11;8.88;;;5.60;;
37407;SDS011;24866;50.248;8.252;2022-07-23T13:06:43;8.10;;;5.18;;
37407;SDS011;24866;50.248;8.252;2022-07-23T13:09:15;10.88;;;5.63;;
37407;SDS011;24866;50.248;8.252;2022-07-23T13:11:47;6.65;;;4.50;;
37407;SDS011;24866;50.248;8.252;2022-07-23T13:14:19;8.77;;;5.82;;
37407;SDS011;24866;50.248;8.252;2022-07-23T13:16:49;9.30;;;5.78;;
37407;SDS011;24866;50.248;8.252;2022-07-23T13:19:22;7.78;;;5.50;;
37407;SDS011;24866;50.248;8.252;2022-07-23T13:21:52;6.38;;;5.15;;
37407;SDS011;24866;50.248;8.252;2022-07-23T13:24:22;7.85;;;4.30;;
37407;SDS011;24866;50.248;8.252;2022-07-23T13:26:51;8.00;;;5.07;;
37407;SDS011;24866;50.248;8.252;2022-07-23T13:29:21;8.45;;;5.70;;
37407;SDS011;24866;50.248;8.252;2022-07-23T13:31:51;6.20;;;5.57;;
37407;SDS011;24866;50.248;8.252;2022-07-23T13:34:23;8.82;;;5.60;;
37407;SDS011;24866;50.248;8.252;2022-07-23T13:36:53;8.60;;;5.45;;
37407;SDS011;24866;50.248;8.252;2022-07-23T13:39:23;8.30;;;5.18;;
37407;SDS011;24866;50.248;8.252;2022-07-23T13:41:53;6.80;;;4.78;;
37407;SDS011;24866;50.248;8.252;2022-07-23T13:44:23;5.85;;;4.65;;
37407;SDS011;24866;50.248;8.252;2022-07-23T13:46:53;5.93;;;4.13;;
37407;SDS011;24866;50.248;8.252;2022-07-23T13:49:24;6.20;;;3.92;;
37407;SDS011;24866;50.248;8.252;2022-07-23T13:51:54;6.13;;;4.85;;
37407;SDS011;24866;50.248;8.252;2022-07-23T13:54:26;6.03;;;5.18;;
37407;SDS011;24866;50.248;8.252;2022-07-23T13:56:56;10.00;;;4.88;;
37407;SDS011;24866;50.248;8.252;2022-07-23T13:59:26;4.03;;;3.63;;
37407;SDS011;24866;50.248;8.252;2022-07-23T14:01:56;9.80;;;5.00;;
37407;SDS011;24866;50.248;8.252;2022-07-23T14:04:27;6.15;;;5.13;;
37407;SDS011;24866;50.248;8.252;2022-07-23T14:06:57;9.20;;;5.13;;
37407;SDS011;24866;50.248;8.252;2022-07-23T14:09:27;6.32;;;4.68;;
37407;SDS011;24866;50.248;8.252;2022-07-23T14:11:58;5.15;;;4.30;;
37407;SDS011;24866;50.248;8.252;2022-07-23T14:14:28;9.65;;;5.25;;
37407;SDS011;24866;50.248;8.252;2022-07-23T14:16:58;6.78;;;3.90;;
37407;SDS011;24866;50.248;8.252;2022-07-23T14:19:29;6.75;;;3.08;;
37407;SDS011;24866;50.248;8.252;2022-07-23T14:21:59;6.80;;;4.13;;
37407;SDS011;24866;50.248;8.252;2022-07-23T14:24:29;6.22;;;4.30;;
37407;SDS011;24866;50.248;8.252;2022-07-23T14:27:00;5.28;;;3.60;;
37407;SDS011;24866;50.248;8.252;2022-07-23T14:29:30;8.10;;;4.13;;
37407;SDS011;24866;50.248;8.252;2022-07-23T14:32:01;6.35;;;4.05;;
37407;SDS011;24866;50.248;8.252;2022-07-23T14:34:34;5.88;;;4.18;;
37407;SDS011;24866;50.248;8.252;2022-07-23T14:37:04;7.68;;;4.75;;
37407;SDS011;24866;50.248;8.252;2022-07-23T14:39:35;7.47;;;4.53;;
37407;SDS011;24866;50.248;8.252;2022-07-23T14:42:05;5.85;;;4.50;;
37407;SDS011;24866;50.248;8.252;2022-07-23T14:44:36;6.55;;;4.68;;
37407;SDS011;24866;50.248;8.252;2022-07-23T14:47:06;5.95;;;4.60;;
37407;SDS011;24866;50.248;8.252;2022-07-23T14:49:37;8.82;;;4.88;;
37407;SDS011;24866;50.248;8.252;2022-07-23T14:52:07;7.30;;;4.40;;
37407;SDS011;24866;50.248;8.252;2022-07-23T14:54:37;5.05;;;4.20;;
37407;SDS011;24866;50.248;8.252;2022-07-23T14:57:07;8.55;;;4.60;;
37407;SDS011;24866;50.248;8.252;2022-07-23T14:59:37;7.80;;;5.10;;
37407;SDS011;24866;50.248;8.252;2022-07-23T15:04:41;6.78;;;4.22;;
37407;SDS011;24866;50.248;8.252;2022-07-23T15:07:11;7.13;;;3.90;;
37407;SDS011;24866;50.248;8.252;2022-07-23T15:09:41;4.85;;;4.10;;
37407;SDS011;24866;50.248;8.252;2022-07-23T15:12:11;4.78;;;4.10;;
37407;SDS011;24866;50.248;8.252;2022-07-23T15:14:41;5.43;;;4.47;;